x

North Michigan- Halfway Between North Manitou And Washington Islands. (45002) Wave Buoy

12:50am - Tue 1st Sep 2015 All times are CDT. -5 hours from GMT.

  • Sig Wave height 2.6ft
  • Swell Direction
  • Peak Period 4s
  • Average Period 4s
  • Wind
    18mph, 20mph gusts
  • Sea Temp 65°f
  • Air Temp 64°f
  • Sea Pressure 1015.4mb
  • North Michigan- Halfway Between North Manitou And Washington Islands.
  • North Michigan- Halfway Between North Manitou And Washington Islands.

More Historic Weather Station data

Upgrade to MSW Pro to gain access to the past 30 days of data for over 8000 Wavebouys and Weather Stations around the globe.

Join Pro

Comparision Forecast

View Surf forecast
   
Tue 09/01 12:50am 2.5ft 4s 4s 18 20 mph 1015.4mb 65f 64f
Mon 08/31 11:50pm 2.5ft 4s 4s 16 18 mph 1015.4mb 65f 65f
10:50pm 3ft 4s 4s 16 18 mph 1015.3mb 65f 65f
9:50pm 3ft 4s 4s 18 20 mph 1015.5mb 65f 65f
8:50pm 2.5ft 4s 4s 18 20 mph 1015.3mb 65f 66f
7:50pm 2.5ft 4s 4s 18 20 mph 1014.9mb 65f 65f
6:50pm 2.5ft 5s 4s 16 20 mph 1014.8mb 65f 65f
5:50pm 2.5ft 4s 4s 16 18 mph 1014.9mb 65f 66f
4:50pm 2.5ft 4s 4s 16 18 mph 1014.9mb 65f 65f
3:50pm 2.5ft 4s 4s 18 20 mph 1014.9mb 65f 65f
2:50pm 2.5ft 4s 3s 18 20 mph 1015.3mb 65f 64f
1:50pm 2ft 4s 3s 18 20 mph 1015.8mb 65f 63f
12:50pm 1.6ft 4s 3s 16 18 mph 1016mb 65f 63f
11:50am 2ft 4s 3s 16 18 mph 1016.3mb 65f 63f
10:50am 2ft 4s 3s 16 18 mph 1016.2mb 65f 62f
9:50am 2ft 4s 3s 16 18 mph 1016mb 65f 62f
8:50am 2ft 4s 4s 13 16 mph 1015.5mb 65f 63f
7:50am 2ft 4s 4s 11 13 mph 1015.4mb 65f 64f
6:50am 2ft 4s 4s 11 13 mph 1015.3mb 65f 64f
5:50am 2.5ft 4s 4s 13 16 mph 1014.8mb 65f 64f
4:50am 2.5ft 5s 4s 13 16 mph 1014.5mb 65f 64f
3:50am 2.5ft 5s 4s 13 16 mph 1014.5mb 65f 64f
2:50am 3ft 5s 4s 16 20 mph 1014.3mb 65f 64f
1:50am 3ft 5s 4s 16 18 mph 1014.3mb 65f 64f
12:50am 3.5ft 5s 4s 18 20 mph 1014.5mb 65f 64f
Sun 08/30 11:50pm 3ft 5s 4s 18 20 mph 1014.6mb 65f 64f
10:50pm 3.5ft 4s 4s 18 22 mph 1014.5mb 65f 64f
9:50pm 3ft 4s 4s 20 25 mph 1014.2mb 65f 64f
8:50pm 2.5ft 4s 3s 20 25 mph 1014.2mb 65f 64f
7:50pm 2.5ft 4s 3s 18 20 mph 1014mb 65f 65f
6:50pm 2ft 4s 3s 18 20 mph 1013.9mb 65f 65f
5:50pm 2ft 4s 3s 18 20 mph 1014.4mb 65f 65f
4:50pm 2ft 3s 3s 16 20 mph 1014.9mb 65f 65f
3:50pm 1.6ft 3s 3s 18 20 mph 1015.1mb 65f 64f
2:50pm 1.6ft 3s 3s 18 20 mph 1015.7mb 65f 65f
1:50pm 1.3ft 3s 3s 16 18 mph 1016.4mb 65f 64f
12:50pm 1.3ft 3s 3s 13 18 mph 1016.9mb 65f 64f
11:50am 1.3ft 3s 3s 13 16 mph 1017.3mb 65f 64f
10:50am 0.7ft  -  3s 13 16 mph 1017.6mb 65f 64f
9:50am 0.7ft  -  3s 11
mph
1017.6mb 65f 63f
8:50am 0.3ft  -  3s 11
mph
1017.4mb 65f 63f
7:50am 0.3ft  -  3s 9 11 mph 1017.4mb 64f 63f
6:50am 0.3ft  -  3s 7
mph
1017.6mb 64f 63f
5:50am 0.3ft  -  3s 7
mph
1017.1mb 64f 63f
4:50am 0.3ft  -  3s 7
mph
1017mb 64f 63f
3:50am 0.7ft  -  3s 7 9 mph 1016.8mb 64f 63f
2:50am 0.7ft  -  3s 7 9 mph 1017mb 65f 63f
1:50am 0.7ft  -  3s 9 11 mph 1016.8mb 65f 63f
12:50am 0.7ft  -  3s 9 11 mph 1017.2mb 65f 63f
Sat 08/29 11:50pm 0.7ft  -  3s 9 11 mph 1017.2mb 65f 63f
10:50pm 0.7ft  -  3s 9 11 mph 1017.4mb 65f 64f
9:50pm 0.7ft  -  3s 11 13 mph 1017.4mb 65f 63f
8:50pm 0.7ft  -  3s 11
mph
1017.1mb 65f 64f
7:50pm 0.7ft  -  3s 9
mph
1016.7mb 65f 64f
6:50pm 0.7ft  -  3s 9
mph
1016.8mb 65f 65f
5:50pm 0.3ft  -  3s 9 11 mph 1017.1mb 65f 65f
4:50pm 0.3ft  -  3s 9 11 mph 1017.3mb 65f 65f
3:50pm 0.7ft  -  3s 7
mph
1017.2mb 65f 64f
2:50pm 0.7ft  -  3s 7
mph
1017.6mb 65f 64f
1:50pm 0.7ft  -  3s 7 9 mph 1018.2mb 65f 64f
12:50pm 1ft 4s 3s 9 11 mph 1018.1mb 64f 63f
11:50am 1.3ft 3s 3s 11
mph
1018.7mb 64f 63f
10:50am 1.3ft 4s 3s 13 18 mph 1018.2mb 64f 63f
9:50am 1.6ft 4s 3s 9 11 mph 1018.2mb 64f 62f
8:50am 2ft 4s 3s 13 18 mph 1018.5mb 64f 62f
7:50am 2ft 4s 3s 13 16 mph 1018.6mb 64f 61f
6:50am 2.5ft 4s 4s 13 16 mph 1018.6mb 64f 61f
5:50am 2.5ft 4s 4s 16 18 mph 1018.7mb 64f 61f
4:50am 2.5ft 4s 4s 13 16 mph 1019mb 64f 62f
3:50am 3ft 4s 4s 18 22 mph 1018.8mb 64f 63f
2:50am 3ft 5s 4s 20 22 mph 1018.5mb 64f 63f
1:50am 3ft 5s 4s 18 22 mph 1018.8mb 64f 63f
12:50am 2.5ft 4s 4s 25 29 mph 1017.8mb 64f 64f
Fri 08/28 11:50pm 2.5ft 5s 4s 18 22 mph 1017.8mb 64f 64f
10:50pm 2.5ft 5s 4s 13 16 mph 1018.3mb 64f 63f
9:50pm 3ft 5s 4s 16 18 mph 1018.2mb 64f 64f
8:50pm 3.5ft 5s 4s 22 25 mph 1017mb 64f 64f
7:50pm 3.5ft 4s 4s 22 27 mph 1016.7mb 64f 63f
6:50pm 3.5ft 4s 4s 20 22 mph 1016.9mb 64f 64f
5:50pm 3.5ft 5s 4s 20 25 mph 1016.8mb 64f 64f
4:50pm 3ft 4s 4s 20 22 mph 1017mb 64f 64f
3:50pm 3ft 5s 4s 20 25 mph 1017.4mb 64f 64f
2:50pm 3ft 5s 4s 22 25 mph 1017.7mb 64f 64f
1:50pm 3.5ft 5s 4s 20 27 mph 1018.3mb 64f 64f
12:50pm 2.5ft 5s 4s 20 22 mph 1018.7mb 64f 64f
11:50am 2.5ft 4s 4s 18 22 mph 1019.1mb 64f 64f
10:50am 2.5ft 4s 4s 18 20 mph 1019.3mb 64f 63f
9:50am 3ft 5s 4s 16 18 mph 1019.3mb 64f 62f
8:50am 3ft 5s 4s 18 20 mph 1019.2mb 64f 62f
7:50am 3ft 5s 4s 20 25 mph 1019.3mb 64f 63f
6:50am 3.5ft 5s 4s 20 25 mph 1018.9mb 64f 63f